sensor_id;sensor_type;location;lat;lon;timestamp;temperature;humidity
80220;DHT22;70247;37.958;23.722;2023-07-16T00:02:20;31.50;36.70
80220;DHT22;70247;37.958;23.722;2023-07-16T00:04:45;31.50;36.60
80220;DHT22;70247;37.958;23.722;2023-07-16T00:07:11;31.50;37.20
80220;DHT22;70247;37.958;23.722;2023-07-16T00:09:36;31.40;37.20
80220;DHT22;70247;37.958;23.722;2023-07-16T00:12:02;31.40;37.30
80220;DHT22;70247;37.958;23.722;2023-07-16T00:14:28;31.40;37.60
80220;DHT22;70247;37.958;23.722;2023-07-16T00:16:53;31.40;37.10
80220;DHT22;70247;37.958;23.722;2023-07-16T00:19:19;31.40;37.30
80220;DHT22;70247;37.958;23.722;2023-07-16T00:21:44;31.30;37.70
80220;DHT22;70247;37.958;23.722;2023-07-16T00:24:10;31.30;37.20
80220;DHT22;70247;37.958;23.722;2023-07-16T00:26:36;31.30;37.70
80220;DHT22;70247;37.958;23.722;2023-07-16T00:29:01;31.30;37.70
80220;DHT22;70247;37.958;23.722;2023-07-16T00:31:27;31.30;37.90
80220;DHT22;70247;37.958;23.722;2023-07-16T00:33:52;31.30;37.80
80220;DHT22;70247;37.958;23.722;2023-07-16T00:36:18;31.20;37.90
80220;DHT22;70247;37.958;23.722;2023-07-16T00:38:44;31.20;38.30
80220;DHT22;70247;37.958;23.722;2023-07-16T00:41:12;31.20;37.90
80220;DHT22;70247;37.958;23.722;2023-07-16T00:43:38;31.10;38.30
80220;DHT22;70247;37.958;23.722;2023-07-16T00:46:03;31.10;38.70
80220;DHT22;70247;37.958;23.722;2023-07-16T00:48:29;31.10;38.40
80220;DHT22;70247;37.958;23.722;2023-07-16T00:50:55;31.10;38.80
80220;DHT22;70247;37.958;23.722;2023-07-16T00:53:21;31.10;38.40
80220;DHT22;70247;37.958;23.722;2023-07-16T00:55:46;31.10;38.50
80220;DHT22;70247;37.958;23.722;2023-07-16T00:58:12;31.00;37.90
80220;DHT22;70247;37.958;23.722;2023-07-16T01:00:38;31.00;37.90
80220;DHT22;70247;37.958;23.722;2023-07-16T01:03:06;31.00;38.70
80220;DHT22;70247;37.958;23.722;2023-07-16T01:08:09;31.00;38.50
80220;DHT22;70247;37.958;23.722;2023-07-16T01:10:39;31.00;38.60
80220;DHT22;70247;37.958;23.722;2023-07-16T01:13:05;30.90;38.20
80220;DHT22;70247;37.958;23.722;2023-07-16T01:15:30;30.90;38.50
80220;DHT22;70247;37.958;23.722;2023-07-16T01:17:56;30.90;38.40
80220;DHT22;70247;37.958;23.722;2023-07-16T01:20:22;30.90;38.10
80220;DHT22;70247;37.958;23.722;2023-07-16T01:30:33;30.90;38.00
80220;DHT22;70247;37.958;23.722;2023-07-16T01:33:00;30.90;38.50
80220;DHT22;70247;37.958;23.722;2023-07-16T01:35:27;30.90;38.10
80220;DHT22;70247;37.958;23.722;2023-07-16T01:37:53;30.80;37.90
80220;DHT22;70247;37.958;23.722;2023-07-16T01:40:18;30.80;38.10
80220;DHT22;70247;37.958;23.722;2023-07-16T01:42:44;30.80;38.20
80220;DHT22;70247;37.958;23.722;2023-07-16T01:45:10;30.80;38.10
80220;DHT22;70247;37.958;23.722;2023-07-16T01:50:07;30.80;38.50
80220;DHT22;70247;37.958;23.722;2023-07-16T01:52:32;30.80;38.70
80220;DHT22;70247;37.958;23.722;2023-07-16T01:54:58;30.80;38.60
80220;DHT22;70247;37.958;23.722;2023-07-16T01:57:23;30.80;38.80
80220;DHT22;70247;37.958;23.722;2023-07-16T01:59:49;30.80;38.70
80220;DHT22;70247;37.958;23.722;2023-07-16T02:02:15;30.80;38.90
80220;DHT22;70247;37.958;23.722;2023-07-16T02:04:40;30.80;39.20
80220;DHT22;70247;37.958;23.722;2023-07-16T02:07:06;30.70;39.00
80220;DHT22;70247;37.958;23.722;2023-07-16T02:09:33;30.80;39.10
80220;DHT22;70247;37.958;23.722;2023-07-16T02:11:58;30.80;38.80
80220;DHT22;70247;37.958;23.722;2023-07-16T02:14:24;30.80;38.90
80220;DHT22;70247;37.958;23.722;2023-07-16T02:16:50;30.80;38.60
80220;DHT22;70247;37.958;23.722;2023-07-16T02:19:15;30.70;39.00
80220;DHT22;70247;37.958;23.722;2023-07-16T02:21:41;30.70;39.00
80220;DHT22;70247;37.958;23.722;2023-07-16T02:24:06;30.60;39.00
80220;DHT22;70247;37.958;23.722;2023-07-16T02:26:32;30.60;38.90
80220;DHT22;70247;37.958;23.722;2023-07-16T02:28:57;30.60;39.30
80220;DHT22;70247;37.958;23.722;2023-07-16T02:31:24;30.60;39.40
80220;DHT22;70247;37.958;23.722;2023-07-16T02:33:50;30.60;39.40
80220;DHT22;70247;37.958;23.722;2023-07-16T02:36:15;30.60;39.20
80220;DHT22;70247;37.958;23.722;2023-07-16T02:38:41;30.60;39.40
80220;DHT22;70247;37.958;23.722;2023-07-16T02:41:06;30.60;39.50
80220;DHT22;70247;37.958;23.722;2023-07-16T02:43:32;30.50;39.40
80220;DHT22;70247;37.958;23.722;2023-07-16T02:45:58;30.50;39.30
80220;DHT22;70247;37.958;23.722;2023-07-16T02:48:23;30.50;39.40
80220;DHT22;70247;37.958;23.722;2023-07-16T02:50:49;30.50;39.50
80220;DHT22;70247;37.958;23.722;2023-07-16T02:53:15;30.50;39.20
80220;DHT22;70247;37.958;23.722;2023-07-16T02:55:40;30.50;39.00
80220;DHT22;70247;37.958;23.722;2023-07-16T02:58:06;30.50;39.20
80220;DHT22;70247;37.958;23.722;2023-07-16T03:00:31;30.60;39.40
80220;DHT22;70247;37.958;23.722;2023-07-16T03:02:57;30.50;39.30
80220;DHT22;70247;37.958;23.722;2023-07-16T03:05:26;30.50;39.70
80220;DHT22;70247;37.958;23.722;2023-07-16T03:07:52;30.50;39.70
80220;DHT22;70247;37.958;23.722;2023-07-16T03:10:18;30.50;39.70
80220;DHT22;70247;37.958;23.722;2023-07-16T03:12:43;30.50;39.50
80220;DHT22;70247;37.958;23.722;2023-07-16T03:15:09;30.50;39.40
80220;DHT22;70247;37.958;23.722;2023-07-16T03:17:35;30.50;39.30
80220;DHT22;70247;37.958;23.722;2023-07-16T03:20:01;30.40;39.20
80220;DHT22;70247;37.958;23.722;2023-07-16T03:22:26;30.50;39.40
80220;DHT22;70247;37.958;23.722;2023-07-16T03:24:52;30.40;39.60
80220;DHT22;70247;37.958;23.722;2023-07-16T03:27:17;30.40;39.60
80220;DHT22;70247;37.958;23.722;2023-07-16T03:29:43;30.30;39.60
80220;DHT22;70247;37.958;23.722;2023-07-16T03:32:08;30.30;39.90
80220;DHT22;70247;37.958;23.722;2023-07-16T03:34:34;30.40;39.70
80220;DHT22;70247;37.958;23.722;2023-07-16T03:36:59;30.40;40.50
80220;DHT22;70247;37.958;23.722;2023-07-16T03:39:25;30.30;40.00
80220;DHT22;70247;37.958;23.722;2023-07-16T03:41:51;30.30;40.90
80220;DHT22;70247;37.958;23.722;2023-07-16T03:44:16;30.30;40.10
80220;DHT22;70247;37.958;23.722;2023-07-16T03:46:42;30.30;40.00
80220;DHT22;70247;37.958;23.722;2023-07-16T03:49:07;30.40;40.10
80220;DHT22;70247;37.958;23.722;2023-07-16T03:51:33;30.30;39.80
80220;DHT22;70247;37.958;23.722;2023-07-16T03:53:59;30.30;40.10
80220;DHT22;70247;37.958;23.722;2023-07-16T03:56:25;30.30;39.60
80220;DHT22;70247;37.958;23.722;2023-07-16T03:58:50;30.40;39.70
80220;DHT22;70247;37.958;23.722;2023-07-16T04:01:16;30.40;39.90
80220;DHT22;70247;37.958;23.722;2023-07-16T04:03:41;30.40;39.60
80220;DHT22;70247;37.958;23.722;2023-07-16T04:06:08;30.40;39.60
80220;DHT22;70247;37.958;23.722;2023-07-16T04:08:35;30.50;39.50
80220;DHT22;70247;37.958;23.722;2023-07-16T04:11:00;30.40;39.80
80220;DHT22;70247;37.958;23.722;2023-07-16T04:13:26;30.40;39.40
80220;DHT22;70247;37.958;23.722;2023-07-16T04:15:52;30.50;39.30
80220;DHT22;70247;37.958;23.722;2023-07-16T04:18:20;30.50;39.50
80220;DHT22;70247;37.958;23.722;2023-07-16T04:20:46;30.50;39.70
80220;DHT22;70247;37.958;23.722;2023-07-16T04:23:12;30.50;39.40
80220;DHT22;70247;37.958;23.722;2023-07-16T04:25:37;30.50;39.80
80220;DHT22;70247;37.958;23.722;2023-07-16T04:28:03;30.50;39.30
80220;DHT22;70247;37.958;23.722;2023-07-16T04:30:29;30.50;39.00
80220;DHT22;70247;37.958;23.722;2023-07-16T04:32:55;30.50;38.80
80220;DHT22;70247;37.958;23.722;2023-07-16T04:35:20;30.50;39.30
80220;DHT22;70247;37.958;23.722;2023-07-16T04:37:46;30.50;38.00
80220;DHT22;70247;37.958;23.722;2023-07-16T04:40:11;30.60;38.40
80220;DHT22;70247;37.958;23.722;2023-07-16T04:42:37;30.60;38.20
80220;DHT22;70247;37.958;23.722;2023-07-16T04:45:03;30.60;38.00
80220;DHT22;70247;37.958;23.722;2023-07-16T04:47:29;30.60;38.40
80220;DHT22;70247;37.958;23.722;2023-07-16T04:49:55;30.70;37.40
80220;DHT22;70247;37.958;23.722;2023-07-16T04:52:20;30.70;37.40
80220;DHT22;70247;37.958;23.722;2023-07-16T04:54:46;30.80;37.20
80220;DHT22;70247;37.958;23.722;2023-07-16T04:57:11;30.70;37.50
80220;DHT22;70247;37.958;23.722;2023-07-16T04:59:37;30.80;37.20
80220;DHT22;70247;37.958;23.722;2023-07-16T05:02:04;30.80;37.70
80220;DHT22;70247;37.958;23.722;2023-07-16T05:04:30;30.80;37.10
80220;DHT22;70247;37.958;23.722;2023-07-16T05:06:56;30.80;36.90
80220;DHT22;70247;37.958;23.722;2023-07-16T05:09:21;30.90;36.70
80220;DHT22;70247;37.958;23.722;2023-07-16T05:11:47;30.90;37.30
80220;DHT22;70247;37.958;23.722;2023-07-16T05:14:12;31.00;36.90
80220;DHT22;70247;37.958;23.722;2023-07-16T05:16:38;30.90;36.40
80220;DHT22;70247;37.958;23.722;2023-07-16T05:19:03;31.00;36.50
80220;DHT22;70247;37.958;23.722;2023-07-16T05:21:29;31.00;36.40
80220;DHT22;70247;37.958;23.722;2023-07-16T05:23:55;31.00;36.40
80220;DHT22;70247;37.958;23.722;2023-07-16T05:26:20;31.10;35.80
80220;DHT22;70247;37.958;23.722;2023-07-16T05:28:46;31.10;36.10
80220;DHT22;70247;37.958;23.722;2023-07-16T05:31:11;31.20;36.10
80220;DHT22;70247;37.958;23.722;2023-07-16T05:33:37;31.20;35.70
80220;DHT22;70247;37.958;23.722;2023-07-16T05:36:03;31.20;36.00
80220;DHT22;70247;37.958;23.722;2023-07-16T05:38:28;31.20;35.30
80220;DHT22;70247;37.958;23.722;2023-07-16T05:40:59;31.20;35.70
80220;DHT22;70247;37.958;23.722;2023-07-16T05:43:24;31.20;35.40
80220;DHT22;70247;37.958;23.722;2023-07-16T05:45:50;31.20;35.80
80220;DHT22;70247;37.958;23.722;2023-07-16T05:48:16;31.30;35.00
80220;DHT22;70247;37.958;23.722;2023-07-16T05:50:43;31.40;35.00
80220;DHT22;70247;37.958;23.722;2023-07-16T05:53:08;31.40;35.50
80220;DHT22;70247;37.958;23.722;2023-07-16T05:55:34;31.40;35.70
80220;DHT22;70247;37.958;23.722;2023-07-16T05:58:00;31.50;35.50
80220;DHT22;70247;37.958;23.722;2023-07-16T06:00:25;31.50;36.10
80220;DHT22;70247;37.958;23.722;2023-07-16T06:02:51;31.50;35.40
80220;DHT22;70247;37.958;23.722;2023-07-16T06:05:16;31.50;34.10
80220;DHT22;70247;37.958;23.722;2023-07-16T06:07:42;31.60;34.30
80220;DHT22;70247;37.958;23.722;2023-07-16T06:10:08;31.60;34.20
80220;DHT22;70247;37.958;23.722;2023-07-16T06:12:34;31.70;34.00
80220;DHT22;70247;37.958;23.722;2023-07-16T06:14:59;31.70;33.80
80220;DHT22;70247;37.958;23.722;2023-07-16T06:17:25;31.80;33.70
80220;DHT22;70247;37.958;23.722;2023-07-16T06:19:51;31.80;34.40
80220;DHT22;70247;37.958;23.722;2023-07-16T06:22:17;31.90;34.00
80220;DHT22;70247;37.958;23.722;2023-07-16T06:24:42;32.00;33.40
80220;DHT22;70247;37.958;23.722;2023-07-16T06:27:08;32.00;34.00
80220;DHT22;70247;37.958;23.722;2023-07-16T06:29:34;32.00;33.60
80220;DHT22;70247;37.958;23.722;2023-07-16T06:32:00;32.00;33.50
80220;DHT22;70247;37.958;23.722;2023-07-16T06:34:25;32.10;33.60
80220;DHT22;70247;37.958;23.722;2023-07-16T06:36:51;32.20;34.00
80220;DHT22;70247;37.958;23.722;2023-07-16T06:39:16;32.20;34.30
80220;DHT22;70247;37.958;23.722;2023-07-16T06:41:42;32.20;33.60
80220;DHT22;70247;37.958;23.722;2023-07-16T06:44:08;32.30;34.00
80220;DHT22;70247;37.958;23.722;2023-07-16T06:46:33;32.40;34.10
80220;DHT22;70247;37.958;23.722;2023-07-16T06:48:59;32.40;34.30
80220;DHT22;70247;37.958;23.722;2023-07-16T06:51:24;32.60;33.90
80220;DHT22;70247;37.958;23.722;2023-07-16T06:53:50;32.70;33.60
80220;DHT22;70247;37.958;23.722;2023-07-16T06:56:16;32.90;33.70
80220;DHT22;70247;37.958;23.722;2023-07-16T06:58:41;33.30;33.10
80220;DHT22;70247;37.958;23.722;2023-07-16T07:01:07;33.50;32.80
80220;DHT22;70247;37.958;23.722;2023-07-16T07:03:32;33.70;32.60
80220;DHT22;70247;37.958;23.722;2023-07-16T07:06:01;33.70;32.50
80220;DHT22;70247;37.958;23.722;2023-07-16T07:08:27;33.70;32.80
80220;DHT22;70247;37.958;23.722;2023-07-16T07:10:52;33.60;33.30
80220;DHT22;70247;37.958;23.722;2023-07-16T07:13:18;33.60;32.60
80220;DHT22;70247;37.958;23.722;2023-07-16T07:15:43;33.60;32.90
80220;DHT22;70247;37.958;23.722;2023-07-16T07:18:09;33.60;33.10
80220;DHT22;70247;37.958;23.722;2023-07-16T07:20:35;33.60;33.50
80220;DHT22;70247;37.958;23.722;2023-07-16T07:23:00;33.60;33.50
80220;DHT22;70247;37.958;23.722;2023-07-16T07:25:28;33.60;33.50
80220;DHT22;70247;37.958;23.722;2023-07-16T07:27:54;33.60;32.30
80220;DHT22;70247;37.958;23.722;2023-07-16T07:30:19;33.60;33.10
80220;DHT22;70247;37.958;23.722;2023-07-16T07:32:45;33.50;33.10
80220;DHT22;70247;37.958;23.722;2023-07-16T07:35:11;33.50;33.20
80220;DHT22;70247;37.958;23.722;2023-07-16T07:37:36;33.60;33.10
80220;DHT22;70247;37.958;23.722;2023-07-16T07:40:02;33.60;33.50
80220;DHT22;70247;37.958;23.722;2023-07-16T07:42:29;33.60;33.70
80220;DHT22;70247;37.958;23.722;2023-07-16T07:44:54;33.60;33.50
80220;DHT22;70247;37.958;23.722;2023-07-16T07:47:20;33.60;34.00
80220;DHT22;70247;37.958;23.722;2023-07-16T07:49:46;33.70;33.00
80220;DHT22;70247;37.958;23.722;2023-07-16T07:52:11;33.80;33.00
80220;DHT22;70247;37.958;23.722;2023-07-16T07:54:37;33.80;34.30
80220;DHT22;70247;37.958;23.722;2023-07-16T07:57:03;33.90;32.40
80220;DHT22;70247;37.958;23.722;2023-07-16T07:59:29;34.00;32.90
80220;DHT22;70247;37.958;23.722;2023-07-16T08:01:55;33.90;33.10
80220;DHT22;70247;37.958;23.722;2023-07-16T08:04:21;34.00;32.60
80220;DHT22;70247;37.958;23.722;2023-07-16T08:06:47;34.00;32.30
80220;DHT22;70247;37.958;23.722;2023-07-16T08:09:12;34.10;32.40
80220;DHT22;70247;37.958;23.722;2023-07-16T08:11:38;34.10;32.00
80220;DHT22;70247;37.958;23.722;2023-07-16T08:14:03;34.10;32.60
80220;DHT22;70247;37.958;23.722;2023-07-16T08:16:29;34.20;32.30
80220;DHT22;70247;37.958;23.722;2023-07-16T08:18:55;34.30;31.50
80220;DHT22;70247;37.958;23.722;2023-07-16T08:21:20;34.30;31.90
80220;DHT22;70247;37.958;23.722;2023-07-16T08:23:49;34.50;31.50
80220;DHT22;70247;37.958;23.722;2023-07-16T08:26:14;34.80;31.70
80220;DHT22;70247;37.958;23.722;2023-07-16T08:28:40;35.00;32.10
80220;DHT22;70247;37.958;23.722;2023-07-16T08:31:05;35.10;31.90
80220;DHT22;70247;37.958;23.722;2023-07-16T08:33:31;35.30;31.50
80220;DHT22;70247;37.958;23.722;2023-07-16T08:35:57;35.80;30.80
80220;DHT22;70247;37.958;23.722;2023-07-16T08:38:22;36.50;29.90
80220;DHT22;70247;37.958;23.722;2023-07-16T08:40:48;37.00;29.20
80220;DHT22;70247;37.958;23.722;2023-07-16T08:43:16;37.20;28.80
80220;DHT22;70247;37.958;23.722;2023-07-16T08:45:41;37.30;28.90
80220;DHT22;70247;37.958;23.722;2023-07-16T08:48:10;37.50;28.90
80220;DHT22;70247;37.958;23.722;2023-07-16T08:50:36;37.80;28.70
80220;DHT22;70247;37.958;23.722;2023-07-16T08:53:05;37.80;28.60
80220;DHT22;70247;37.958;23.722;2023-07-16T08:55:31;37.80;28.40
80220;DHT22;70247;37.958;23.722;2023-07-16T08:57:57;38.00;28.50
80220;DHT22;70247;37.958;23.722;2023-07-16T09:00:23;38.60;28.50
80220;DHT22;70247;37.958;23.722;2023-07-16T09:02:54;39.70;27.10
80220;DHT22;70247;37.958;23.722;2023-07-16T09:05:22;40.70;26.40
80220;DHT22;70247;37.958;23.722;2023-07-16T09:07:48;41.20;25.90
80220;DHT22;70247;37.958;23.722;2023-07-16T09:10:14;42.00;25.70
80220;DHT22;70247;37.958;23.722;2023-07-16T09:12:43;42.80;24.80
80220;DHT22;70247;37.958;23.722;2023-07-16T09:15:09;43.50;24.20
80220;DHT22;70247;37.958;23.722;2023-07-16T09:17:35;44.50;23.50
80220;DHT22;70247;37.958;23.722;2023-07-16T09:20:03;45.20;23.10
80220;DHT22;70247;37.958;23.722;2023-07-16T09:22:29;46.00;23.00
80220;DHT22;70247;37.958;23.722;2023-07-16T09:24:55;46.70;22.00
80220;DHT22;70247;37.958;23.722;2023-07-16T09:27:27;46.90;21.30
80220;DHT22;70247;37.958;23.722;2023-07-16T09:29:53;47.30;21.60
80220;DHT22;70247;37.958;23.722;2023-07-16T09:32:18;47.90;21.10
80220;DHT22;70247;37.958;23.722;2023-07-16T09:34:44;48.30;20.70
80220;DHT22;70247;37.958;23.722;2023-07-16T09:37:10;48.70;20.00
80220;DHT22;70247;37.958;23.722;2023-07-16T09:39:37;49.10;20.30
80220;DHT22;70247;37.958;23.722;2023-07-16T09:42:03;49.40;19.90
80220;DHT22;70247;37.958;23.722;2023-07-16T09:44:29;49.80;19.60
80220;DHT22;70247;37.958;23.722;2023-07-16T09:46:55;50.20;19.30
80220;DHT22;70247;37.958;23.722;2023-07-16T09:49:20;49.70;19.50
80220;DHT22;70247;37.958;23.722;2023-07-16T09:51:46;49.30;19.30
80220;DHT22;70247;37.958;23.722;2023-07-16T09:54:13;49.50;19.60
80220;DHT22;70247;37.958;23.722;2023-07-16T09:56:53;49.70;19.20
80220;DHT22;70247;37.958;23.722;2023-07-16T09:59:21;50.00;18.80
80220;DHT22;70247;37.958;23.722;2023-07-16T10:01:48;49.80;19.30
80220;DHT22;70247;37.958;23.722;2023-07-16T10:04:18;50.00;19.10
80220;DHT22;70247;37.958;23.722;2023-07-16T10:06:59;50.50;19.20
80220;DHT22;70247;37.958;23.722;2023-07-16T10:14:41;50.20;19.40
80220;DHT22;70247;37.958;23.722;2023-07-16T10:17:07;50.20;19.20
80220;DHT22;70247;37.958;23.722;2023-07-16T10:19:56;50.50;19.00
80220;DHT22;70247;37.958;23.722;2023-07-16T10:22:38;50.20;18.70
80220;DHT22;70247;37.958;23.722;2023-07-16T10:25:08;49.80;19.30
80220;DHT22;70247;37.958;23.722;2023-07-16T10:27:34;49.80;19.30
80220;DHT22;70247;37.958;23.722;2023-07-16T10:30:00;50.00;18.90
80220;DHT22;70247;37.958;23.722;2023-07-16T10:32:28;49.80;19.40
80220;DHT22;70247;37.958;23.722;2023-07-16T10:34:54;49.60;19.50
80220;DHT22;70247;37.958;23.722;2023-07-16T10:37:20;49.40;19.50
80220;DHT22;70247;37.958;23.722;2023-07-16T10:39:49;48.90;19.60
80220;DHT22;70247;37.958;23.722;2023-07-16T10:42:18;48.70;19.90
80220;DHT22;70247;37.958;23.722;2023-07-16T10:44:44;48.00;20.90
80220;DHT22;70247;37.958;23.722;2023-07-16T10:47:24;47.00;21.00
80220;DHT22;70247;37.958;23.722;2023-07-16T10:49:51;45.80;21.70
80220;DHT22;70247;37.958;23.722;2023-07-16T10:52:20;44.80;22.50
80220;DHT22;70247;37.958;23.722;2023-07-16T10:54:46;43.60;23.30
80220;DHT22;70247;37.958;23.722;2023-07-16T10:57:12;42.80;23.30
80220;DHT22;70247;37.958;23.722;2023-07-16T10:59:39;42.00;24.40
80220;DHT22;70247;37.958;23.722;2023-07-16T11:02:08;41.30;24.30
80220;DHT22;70247;37.958;23.722;2023-07-16T11:04:34;40.60;24.60
80220;DHT22;70247;37.958;23.722;2023-07-16T11:07:03;40.10;25.50
80220;DHT22;70247;37.958;23.722;2023-07-16T11:09:29;39.70;25.50
80220;DHT22;70247;37.958;23.722;2023-07-16T11:11:54;39.40;26.10
80220;DHT22;70247;37.958;23.722;2023-07-16T11:14:21;39.20;26.10
80220;DHT22;70247;37.958;23.722;2023-07-16T11:16:46;39.10;26.40
80220;DHT22;70247;37.958;23.722;2023-07-16T11:19:14;38.70;26.30
80220;DHT22;70247;37.958;23.722;2023-07-16T11:21:39;38.50;26.90
80220;DHT22;70247;37.958;23.722;2023-07-16T11:24:09;38.50;27.50
80220;DHT22;70247;37.958;23.722;2023-07-16T11:26:35;38.40;27.30
80220;DHT22;70247;37.958;23.722;2023-07-16T11:29:01;38.40;28.00
80220;DHT22;70247;37.958;23.722;2023-07-16T11:31:26;38.40;27.50
80220;DHT22;70247;37.958;23.722;2023-07-16T11:33:52;38.30;27.00
80220;DHT22;70247;37.958;23.722;2023-07-16T11:36:18;38.30;26.90
80220;DHT22;70247;37.958;23.722;2023-07-16T11:38:43;38.10;27.40
80220;DHT22;70247;37.958;23.722;2023-07-16T11:41:09;38.00;27.30
80220;DHT22;70247;37.958;23.722;2023-07-16T11:43:35;38.00;28.00
80220;DHT22;70247;37.958;23.722;2023-07-16T11:46:05;38.00;28.60
80220;DHT22;70247;37.958;23.722;2023-07-16T11:48:31;38.10;27.60
80220;DHT22;70247;37.958;23.722;2023-07-16T11:50:57;37.90;27.70
80220;DHT22;70247;37.958;23.722;2023-07-16T11:53:22;37.90;27.90
80220;DHT22;70247;37.958;23.722;2023-07-16T11:55:48;38.00;27.50
80220;DHT22;70247;37.958;23.722;2023-07-16T11:58:13;37.90;27.70
80220;DHT22;70247;37.958;23.722;2023-07-16T12:00:39;37.90;27.80
80220;DHT22;70247;37.958;23.722;2023-07-16T12:03:05;37.90;27.40
80220;DHT22;70247;37.958;23.722;2023-07-16T12:05:30;38.00;27.50
80220;DHT22;70247;37.958;23.722;2023-07-16T12:07:56;38.00;28.20
80220;DHT22;70247;37.958;23.722;2023-07-16T12:10:21;37.90;27.40
80220;DHT22;70247;37.958;23.722;2023-07-16T12:12:47;37.80;27.90
80220;DHT22;70247;37.958;23.722;2023-07-16T12:15:12;37.60;27.80
80220;DHT22;70247;37.958;23.722;2023-07-16T12:17:38;37.50;27.80
80220;DHT22;70247;37.958;23.722;2023-07-16T12:20:04;37.40;28.40
80220;DHT22;70247;37.958;23.722;2023-07-16T12:22:30;37.40;28.50
80220;DHT22;70247;37.958;23.722;2023-07-16T12:24:55;37.40;28.40
80220;DHT22;70247;37.958;23.722;2023-07-16T12:27:21;37.30;28.20
80220;DHT22;70247;37.958;23.722;2023-07-16T12:29:47;37.30;27.70
80220;DHT22;70247;37.958;23.722;2023-07-16T12:32:13;37.30;28.30
80220;DHT22;70247;37.958;23.722;2023-07-16T12:34:39;37.00;28.30
80220;DHT22;70247;37.958;23.722;2023-07-16T12:37:05;37.00;28.50
80220;DHT22;70247;37.958;23.722;2023-07-16T12:39:30;37.00;28.20
80220;DHT22;70247;37.958;23.722;2023-07-16T12:41:56;36.90;28.60
80220;DHT22;70247;37.958;23.722;2023-07-16T12:44:21;36.80;29.10
80220;DHT22;70247;37.958;23.722;2023-07-16T12:46:47;36.80;28.30
80220;DHT22;70247;37.958;23.722;2023-07-16T12:49:13;36.80;28.80
80220;DHT22;70247;37.958;23.722;2023-07-16T12:51:38;36.80;28.60
80220;DHT22;70247;37.958;23.722;2023-07-16T12:54:04;36.80;28.30
80220;DHT22;70247;37.958;23.722;2023-07-16T12:56:29;36.90;29.10
80220;DHT22;70247;37.958;23.722;2023-07-16T12:58:56;36.90;29.00
80220;DHT22;70247;37.958;23.722;2023-07-16T13:01:21;36.90;29.00
80220;DHT22;70247;37.958;23.722;2023-07-16T13:03:47;36.90;28.80
80220;DHT22;70247;37.958;23.722;2023-07-16T13:06:13;36.90;28.80
80220;DHT22;70247;37.958;23.722;2023-07-16T13:08:38;36.80;29.00
80220;DHT22;70247;37.958;23.722;2023-07-16T13:11:04;36.80;28.90
80220;DHT22;70247;37.958;23.722;2023-07-16T13:13:30;36.70;28.90
80220;DHT22;70247;37.958;23.722;2023-07-16T13:15:55;36.60;28.10
80220;DHT22;70247;37.958;23.722;2023-07-16T13:18:21;36.60;28.50
80220;DHT22;70247;37.958;23.722;2023-07-16T13:20:47;36.60;28.80
80220;DHT22;70247;37.958;23.722;2023-07-16T13:23:12;36.60;28.50
80220;DHT22;70247;37.958;23.722;2023-07-16T13:25:38;36.60;28.50
80220;DHT22;70247;37.958;23.722;2023-07-16T13:28:04;36.60;28.40
80220;DHT22;70247;37.958;23.722;2023-07-16T13:30:30;36.50;29.10
80220;DHT22;70247;37.958;23.722;2023-07-16T13:32:55;36.50;28.40
80220;DHT22;70247;37.958;23.722;2023-07-16T13:35:22;36.50;28.40
80220;DHT22;70247;37.958;23.722;2023-07-16T13:37:47;36.50;28.50
80220;DHT22;70247;37.958;23.722;2023-07-16T13:40:13;36.50;28.50
80220;DHT22;70247;37.958;23.722;2023-07-16T13:42:38;36.50;28.60
80220;DHT22;70247;37.958;23.722;2023-07-16T13:45:05;36.50;28.60
80220;DHT22;70247;37.958;23.722;2023-07-16T13:47:31;36.40;28.60
80220;DHT22;70247;37.958;23.722;2023-07-16T13:49:56;36.40;28.30
80220;DHT22;70247;37.958;23.722;2023-07-16T13:52:22;36.40;28.50
80220;DHT22;70247;37.958;23.722;2023-07-16T13:54:47;36.40;28.70
80220;DHT22;70247;37.958;23.722;2023-07-16T13:57:13;36.40;28.70
80220;DHT22;70247;37.958;23.722;2023-07-16T13:59:38;36.40;28.50
80220;DHT22;70247;37.958;23.722;2023-07-16T14:02:04;36.30;28.10
80220;DHT22;70247;37.958;23.722;2023-07-16T14:04:30;36.30;28.20
80220;DHT22;70247;37.958;23.722;2023-07-16T14:06:55;36.20;28.40
80220;DHT22;70247;37.958;23.722;2023-07-16T14:09:22;36.20;28.50
80220;DHT22;70247;37.958;23.722;2023-07-16T14:11:47;36.20;28.90
80220;DHT22;70247;37.958;23.722;2023-07-16T14:14:16;36.20;28.60
80220;DHT22;70247;37.958;23.722;2023-07-16T14:16:42;36.20;28.20
80220;DHT22;70247;37.958;23.722;2023-07-16T14:19:08;36.20;29.00
80220;DHT22;70247;37.958;23.722;2023-07-16T14:21:34;36.00;29.40
80220;DHT22;70247;37.958;23.722;2023-07-16T14:24:00;36.00;28.80
80220;DHT22;70247;37.958;23.722;2023-07-16T14:26:25;35.90;28.50
80220;DHT22;70247;37.958;23.722;2023-07-16T14:28:51;35.90;28.80
80220;DHT22;70247;37.958;23.722;2023-07-16T14:31:16;35.80;28.60
80220;DHT22;70247;37.958;23.722;2023-07-16T14:33:42;35.70;29.00
80220;DHT22;70247;37.958;23.722;2023-07-16T14:36:07;35.60;29.10
80220;DHT22;70247;37.958;23.722;2023-07-16T14:38:33;35.60;29.30
80220;DHT22;70247;37.958;23.722;2023-07-16T14:40:59;35.60;29.60
80220;DHT22;70247;37.958;23.722;2023-07-16T14:43:25;35.70;29.20
80220;DHT22;70247;37.958;23.722;2023-07-16T14:45:50;35.70;29.20
80220;DHT22;70247;37.958;23.722;2023-07-16T14:48:16;35.60;29.40
80220;DHT22;70247;37.958;23.722;2023-07-16T14:50:42;35.50;28.90
80220;DHT22;70247;37.958;23.722;2023-07-16T14:53:07;35.60;29.10
80220;DHT22;70247;37.958;23.722;2023-07-16T14:55:33;35.40;29.30
80220;DHT22;70247;37.958;23.722;2023-07-16T14:57:58;35.40;29.00
80220;DHT22;70247;37.958;23.722;2023-07-16T15:00:24;35.50;29.60
80220;DHT22;70247;37.958;23.722;2023-07-16T15:02:51;35.50;29.70
80220;DHT22;70247;37.958;23.722;2023-07-16T15:05:17;35.50;29.10
80220;DHT22;70247;37.958;23.722;2023-07-16T15:07:43;35.50;29.30
80220;DHT22;70247;37.958;23.722;2023-07-16T15:10:09;35.50;29.70
80220;DHT22;70247;37.958;23.722;2023-07-16T15:12:35;35.50;29.20
80220;DHT22;70247;37.958;23.722;2023-07-16T15:15:01;35.40;29.20
80220;DHT22;70247;37.958;23.722;2023-07-16T15:17:27;35.50;29.20
80220;DHT22;70247;37.958;23.722;2023-07-16T15:19:52;35.50;28.80
80220;DHT22;70247;37.958;23.722;2023-07-16T15:22:18;35.50;29.20
80220;DHT22;70247;37.958;23.722;2023-07-16T15:24:46;35.30;29.10
80220;DHT22;70247;37.958;23.722;2023-07-16T15:27:11;35.30;29.40